createdAt,value
2019-03-27T00:01:38.714Z,8.50
2019-03-27T00:04:12.746Z,8.63
2019-03-27T00:06:43.452Z,8.23
2019-03-27T00:09:14.101Z,9.93
2019-03-27T00:11:44.764Z,9.70
2019-03-27T00:14:17.747Z,9.23
2019-03-27T00:16:48.832Z,10.18
2019-03-27T00:19:20.445Z,9.20
2019-03-27T00:21:52.249Z,9.90
2019-03-27T00:24:23.332Z,10.15
2019-03-27T00:26:54.092Z,10.10
2019-03-27T00:29:24.950Z,9.75
2019-03-27T00:31:58.772Z,10.38
2019-03-27T00:34:32.187Z,9.13
2019-03-27T00:37:05.227Z,9.45
2019-03-27T00:39:39.076Z,9.00
2019-03-27T00:42:11.848Z,11.55
2019-03-27T00:44:42.898Z,9.05
2019-03-27T00:47:15.482Z,9.33
2019-03-27T00:49:46.098Z,7.53
2019-03-27T00:52:16.775Z,8.75
2019-03-27T00:54:49.853Z,9.25
2019-03-27T00:57:21.330Z,8.03
2019-03-27T00:59:52.007Z,8.55
2019-03-27T01:02:22.772Z,7.62
2019-03-27T01:04:53.434Z,8.80
2019-03-27T01:07:24.427Z,8.70
2019-03-27T01:09:55.152Z,8.50
2019-03-27T01:12:40.558Z,7.90
2019-03-27T01:15:12.887Z,8.15
2019-03-27T01:17:45.916Z,9.13
2019-03-27T01:20:21.243Z,7.67
2019-03-27T01:22:52.291Z,7.80
2019-03-27T01:25:23.024Z,9.35
2019-03-27T01:27:54.604Z,10.25
2019-03-27T01:30:28.043Z,9.83
2019-03-27T01:32:58.907Z,10.15
2019-03-27T01:35:40.506Z,9.58
2019-03-27T01:38:13.901Z,8.18
2019-03-27T01:40:45.820Z,10.00
2019-03-27T01:43:18.910Z,8.13
2019-03-27T01:45:53.218Z,10.70
2019-03-27T01:48:25.475Z,8.10
2019-03-27T01:50:56.266Z,9.13
2019-03-27T01:53:27.482Z,8.28
2019-03-27T01:55:58.663Z,10.45
2019-03-27T01:58:29.649Z,9.05
2019-03-27T02:01:02.307Z,8.60
2019-03-27T02:03:35.268Z,8.60
2019-03-27T02:06:06.452Z,9.60
2019-03-27T02:08:37.714Z,9.20
2019-03-27T02:11:10.140Z,9.15
2019-03-27T02:13:40.992Z,8.33
2019-03-27T02:16:12.456Z,9.95
2019-03-27T02:18:44.472Z,8.35
2019-03-27T02:21:16.210Z,8.55
2019-03-27T02:23:46.914Z,10.63
2019-03-27T02:26:18.006Z,8.58
2019-03-27T02:28:49.291Z,8.40
2019-03-27T02:31:20.019Z,8.60
2019-03-27T02:33:50.785Z,9.38
2019-03-27T02:36:22.835Z,9.40
2019-03-27T02:38:53.603Z,9.45
2019-03-27T02:41:24.269Z,9.55
2019-03-27T02:43:56.378Z,10.15
2019-03-27T02:46:29.017Z,9.60
2019-03-27T02:49:01.339Z,10.68
2019-03-27T02:51:34.219Z,10.10
2019-03-27T02:54:06.655Z,8.68
2019-03-27T02:56:41.714Z,9.98
2019-03-27T02:59:13.273Z,10.13
2019-03-27T03:01:49.752Z,8.90
2019-03-27T03:04:20.456Z,9.98
2019-03-27T03:06:52.165Z,9.55
2019-03-27T03:09:22.821Z,9.68
2019-03-27T03:11:54.614Z,9.98
2019-03-27T03:14:25.267Z,10.20
2019-03-27T03:16:56.707Z,10.20
2019-03-27T03:19:28.052Z,9.25
2019-03-27T03:22:02.238Z,9.73
2019-03-27T03:24:36.237Z,10.40
2019-03-27T03:27:06.958Z,9.03
2019-03-27T03:29:37.741Z,11.10
2019-03-27T03:32:08.578Z,10.25
2019-03-27T03:34:39.741Z,9.10
2019-03-27T03:37:11.654Z,9.35
2019-03-27T03:39:43.013Z,9.73
2019-03-27T03:42:16.910Z,10.03
2019-03-27T03:44:49.207Z,8.83
2019-03-27T03:47:20.407Z,8.90
2019-03-27T03:49:54.134Z,9.75
2019-03-27T03:52:27.912Z,11.43
2019-03-27T03:54:58.937Z,9.73
2019-03-27T03:57:30.532Z,11.00
2019-03-27T04:00:03.294Z,10.20
2019-03-27T04:02:37.095Z,10.23
2019-03-27T04:05:07.907Z,11.60
2019-03-27T04:07:40.898Z,10.68
2019-03-27T04:10:11.885Z,9.88
2019-03-27T04:12:42.542Z,10.60
2019-03-27T04:15:13.212Z,11.18
2019-03-27T04:17:45.212Z,10.28
2019-03-27T04:20:15.881Z,10.72
2019-03-27T04:22:47.012Z,9.80
2019-03-27T04:25:22.763Z,11.73
2019-03-27T04:27:55.157Z,10.25
2019-03-27T04:30:26.714Z,10.20
2019-03-27T04:32:58.655Z,11.75
2019-03-27T04:35:29.339Z,12.37
2019-03-27T04:38:00.048Z,10.70
2019-03-27T04:40:33.006Z,10.90
2019-03-27T04:43:03.698Z,11.10
2019-03-27T04:45:34.356Z,9.23
2019-03-27T04:48:05.483Z,11.45
2019-03-27T04:50:36.128Z,9.00
2019-03-27T04:53:14.647Z,9.20
2019-03-27T04:55:48.495Z,11.40
2019-03-27T04:58:47.565Z,9.63
2019-03-27T05:01:41.501Z,8.78
2019-03-27T05:04:13.843Z,11.10
2019-03-27T05:06:44.783Z,10.35
2019-03-27T05:25:21.872Z,10.23
2019-03-27T05:27:52.561Z,12.23
2019-03-27T05:30:32.190Z,9.20
2019-03-27T05:33:15.386Z,9.80
2019-03-27T05:35:48.230Z,9.25
2019-03-27T05:38:20.349Z,11.03
2019-03-27T05:40:57.304Z,9.88
2019-03-27T05:43:31.656Z,10.85
2019-03-27T05:46:05.808Z,12.30
2019-03-27T05:48:44.232Z,10.75
2019-03-27T05:51:20.729Z,10.72
2019-03-27T05:53:49.181Z,10.90
2019-03-27T05:56:27.245Z,8.70
2019-03-27T05:59:01.322Z,10.30
2019-03-27T06:01:34.683Z,9.80
2019-03-27T06:04:31.542Z,10.35
2019-03-27T06:07:02.507Z,9.00
2019-03-27T06:09:35.376Z,13.13
2019-03-27T06:12:07.856Z,11.90
2019-03-27T06:14:40.835Z,10.75
2019-03-27T06:17:12.358Z,11.50
2019-03-27T06:19:43.564Z,12.10
2019-03-27T06:22:15.208Z,12.28
2019-03-27T06:25:01.443Z,12.20
2019-03-27T06:27:34.557Z,12.90
2019-03-27T06:30:05.831Z,13.83
2019-03-27T06:32:37.204Z,10.68
2019-03-27T06:35:08.668Z,11.63
2019-03-27T06:37:40.287Z,12.75
2019-03-27T06:40:12.176Z,10.95
2019-03-27T06:42:50.436Z,13.50
2019-03-27T06:45:21.735Z,13.88
2019-03-27T06:47:54.274Z,13.50
2019-03-27T06:50:28.123Z,15.98
2019-03-27T06:53:08.624Z,16.60
2019-03-27T06:55:39.903Z,16.40
2019-03-27T06:58:10.920Z,17.25
2019-03-27T07:01:01.691Z,19.48
2019-03-27T07:03:38.650Z,17.07
2019-03-27T07:06:10.194Z,16.30
2019-03-27T07:08:44.754Z,16.15
2019-03-27T07:11:17.396Z,18.92
2019-03-27T07:13:49.263Z,16.30
2019-03-27T07:16:20.901Z,19.70
2019-03-27T07:18:52.117Z,17.70
2019-03-27T07:21:25.657Z,19.30
2019-03-27T07:23:59.889Z,21.62
2019-03-27T07:26:31.510Z,20.82
2019-03-27T07:29:02.480Z,17.67
2019-03-27T07:31:34.064Z,20.00
2019-03-27T07:34:10.443Z,20.45
2019-03-27T07:36:44.419Z,21.50
2019-03-27T07:39:16.052Z,20.95
2019-03-27T07:41:50.129Z,19.98
2019-03-27T07:44:22.035Z,20.25
2019-03-27T07:46:53.070Z,22.93
2019-03-27T07:49:27.536Z,20.15
2019-03-27T07:51:58.974Z,19.67
2019-03-27T07:54:31.675Z,21.07
2019-03-27T07:57:06.780Z,20.70
2019-03-27T07:59:51.789Z,21.10
2019-03-27T08:02:24.368Z,21.60
2019-03-27T08:04:57.305Z,21.00
2019-03-27T08:07:30.111Z,19.95
2019-03-27T08:10:03.920Z,19.82
2019-03-27T08:12:35.149Z,22.75
2019-03-27T08:15:07.032Z,23.12
2019-03-27T08:17:39.419Z,21.75
2019-03-27T08:20:13.450Z,20.92
2019-03-27T08:22:46.275Z,22.15
2019-03-27T08:25:17.136Z,20.95
2019-03-27T08:27:49.327Z,19.98
2019-03-27T08:30:20.924Z,19.90
2019-03-27T08:32:55.928Z,20.57
2019-03-27T08:35:27.699Z,18.67
2019-03-27T08:38:01.204Z,18.52
2019-03-27T08:40:32.716Z,20.37
2019-03-27T08:43:05.155Z,21.00
2019-03-27T08:45:38.528Z,19.20
2019-03-27T08:48:09.622Z,19.65
2019-03-27T08:50:43.571Z,17.87
2019-03-27T08:53:18.843Z,18.55
2019-03-27T08:55:50.273Z,20.50
2019-03-27T08:58:22.031Z,16.35
2019-03-27T09:00:57.049Z,19.42
2019-03-27T09:03:27.834Z,18.80
2019-03-27T09:06:02.320Z,18.67
2019-03-27T09:08:36.339Z,17.52
2019-03-27T09:11:10.969Z,17.27
2019-03-27T09:13:41.671Z,18.00
2019-03-27T09:16:15.585Z,17.32
2019-03-27T09:18:46.289Z,18.73
2019-03-27T09:21:20.736Z,17.77
2019-03-27T09:23:52.239Z,18.10
2019-03-27T09:26:27.346Z,15.40
2019-03-27T09:28:59.968Z,17.00
2019-03-27T09:31:43.999Z,16.60
2019-03-27T09:34:10.191Z,14.85
2019-03-27T09:36:41.294Z,15.90
2019-03-27T09:39:19.634Z,17.02
2019-03-27T09:41:56.457Z,16.85
2019-03-27T09:44:29.179Z,13.88
2019-03-27T09:47:03.137Z,15.55
2019-03-27T09:49:48.852Z,12.80
2019-03-27T09:52:09.476Z,13.58
2019-03-27T09:54:40.724Z,15.15
2019-03-27T09:57:13.378Z,13.58
2019-03-27T09:59:45.164Z,11.97
2019-03-27T10:02:20.171Z,12.50
2019-03-27T10:04:51.073Z,11.15
2019-03-27T10:07:25.222Z,13.88
2019-03-27T10:09:57.793Z,14.15
2019-03-27T10:12:30.869Z,9.43
2019-03-27T10:15:11.339Z,9.53
2019-03-27T10:17:45.234Z,9.15
2019-03-27T10:20:16.801Z,11.85
2019-03-27T10:23:03.484Z,6.92
2019-03-27T10:25:45.975Z,5.55
2019-03-27T10:28:20.808Z,4.58
2019-03-27T10:30:53.177Z,6.35
2019-03-27T10:33:34.701Z,4.70
2019-03-27T10:36:10.572Z,7.20
2019-03-27T10:38:43.641Z,5.87
2019-03-27T10:41:16.411Z,5.40
2019-03-27T10:43:50.052Z,6.30
2019-03-27T10:46:21.419Z,7.60
2019-03-27T10:48:57.687Z,6.05
2019-03-27T10:51:30.790Z,6.62
2019-03-27T10:54:07.379Z,7.12
2019-03-27T10:56:41.819Z,7.60
2019-03-27T10:59:14.917Z,8.03
2019-03-27T11:01:48.415Z,8.78
2019-03-27T11:04:24.749Z,8.20
2019-03-27T11:06:59.025Z,8.00
2019-03-27T11:09:30.968Z,7.75
2019-03-27T11:12:01.949Z,8.75
2019-03-27T11:14:40.778Z,7.00
2019-03-27T11:17:14.457Z,7.97
2019-03-27T11:19:45.975Z,6.45
2019-03-27T11:22:16.641Z,8.10
2019-03-27T11:24:47.292Z,7.33
2019-03-27T11:27:17.999Z,6.28
2019-03-27T11:29:48.881Z,6.92
2019-03-27T11:32:21.247Z,7.00
2019-03-27T11:34:52.123Z,6.65
2019-03-27T11:37:22.857Z,5.70
2019-03-27T11:39:53.560Z,6.67
2019-03-27T11:42:24.352Z,6.33
2019-03-27T11:44:55.082Z,6.40
2019-03-27T11:47:27.080Z,6.25
2019-03-27T11:49:57.754Z,5.55
2019-03-27T11:52:29.758Z,6.58
2019-03-27T11:55:01.197Z,6.25
2019-03-27T11:57:32.026Z,5.40
2019-03-27T12:00:02.832Z,5.28
2019-03-27T12:02:33.691Z,5.22
2019-03-27T12:05:04.820Z,5.53
2019-03-27T12:07:35.815Z,5.60
2019-03-27T12:10:07.618Z,4.70
2019-03-27T12:12:38.298Z,5.37
2019-03-27T12:15:10.740Z,4.97
2019-03-27T12:17:41.460Z,5.45
2019-03-27T12:20:12.977Z,5.17
2019-03-27T12:22:56.951Z,5.55
2019-03-27T12:25:16.356Z,5.67
2019-03-27T12:27:47.112Z,4.47
2019-03-27T12:30:18.028Z,4.87
2019-03-27T12:32:48.663Z,4.45
2019-03-27T12:35:19.338Z,5.20
2019-03-27T12:37:49.970Z,4.70
2019-03-27T12:40:20.706Z,4.65
2019-03-27T12:42:51.382Z,4.17
2019-03-27T12:45:22.485Z,3.42
2019-03-27T12:47:56.738Z,4.83
2019-03-27T12:50:27.442Z,4.25
2019-03-27T12:52:58.279Z,3.98
2019-03-27T12:55:28.973Z,3.52
2019-03-27T12:57:59.663Z,3.58
2019-03-27T13:00:31.861Z,4.97
2019-03-27T13:03:02.838Z,4.50
2019-03-27T13:05:33.924Z,4.37
2019-03-27T13:08:05.936Z,3.55
2019-03-27T13:10:36.738Z,4.00
2019-03-27T13:13:07.676Z,4.15
2019-03-27T13:15:38.516Z,3.90
2019-03-27T13:18:09.247Z,3.65
2019-03-27T13:20:39.924Z,4.65
2019-03-27T13:23:10.652Z,3.80
2019-03-27T13:25:41.550Z,3.30
2019-03-27T13:28:15.523Z,3.00
2019-03-27T13:30:46.225Z,4.90
2019-03-27T13:33:16.981Z,3.95
2019-03-27T13:35:54.933Z,3.75
2019-03-27T13:38:25.718Z,3.77
2019-03-27T13:40:56.595Z,5.40
2019-03-27T13:43:27.555Z,6.08
2019-03-27T13:45:59.467Z,6.05
2019-03-27T13:48:30.157Z,5.30
2019-03-27T13:51:01.759Z,6.58
2019-03-27T13:53:32.399Z,5.70
2019-03-27T13:56:05.724Z,5.45
2019-03-27T13:58:37.122Z,6.30
2019-03-27T14:01:12.809Z,5.37
2019-03-27T14:03:44.893Z,5.12
2019-03-27T14:06:16.912Z,5.45
2019-03-27T14:08:47.574Z,6.35
2019-03-27T14:11:18.309Z,6.03
2019-03-27T14:13:49.050Z,5.50
2019-03-27T14:16:19.770Z,5.17
2019-03-27T14:18:50.503Z,6.62
2019-03-27T14:21:23.281Z,6.33
2019-03-27T14:23:53.585Z,4.87
2019-03-27T14:26:29.665Z,5.80
2019-03-27T14:29:00.298Z,7.03
2019-03-27T14:31:30.976Z,5.58
2019-03-27T14:34:01.666Z,6.85
2019-03-27T14:36:32.347Z,6.05
2019-03-27T14:39:03.012Z,5.78
2019-03-27T14:41:33.684Z,5.28
2019-03-27T14:44:04.498Z,5.20
2019-03-27T14:46:35.204Z,5.53
2019-03-27T14:49:07.791Z,5.50
2019-03-27T14:51:38.587Z,4.70
2019-03-27T14:54:09.325Z,5.85
2019-03-27T14:56:41.066Z,6.40
2019-03-27T14:59:11.791Z,6.08
2019-03-27T15:01:42.927Z,6.03
2019-03-27T15:04:13.751Z,6.12
2019-03-27T15:06:44.429Z,5.67
2019-03-27T15:09:15.157Z,5.65
2019-03-27T15:11:45.963Z,5.42
2019-03-27T15:14:16.730Z,6.00
2019-03-27T15:16:47.958Z,5.75
2019-03-27T15:19:18.854Z,5.90
2019-03-27T15:21:49.559Z,5.90
2019-03-27T15:24:21.905Z,6.03
2019-03-27T15:26:53.642Z,5.75
2019-03-27T15:29:24.359Z,6.78
2019-03-27T15:31:55.170Z,6.20
2019-03-27T15:34:25.910Z,5.37
2019-03-27T15:36:56.617Z,7.78
2019-03-27T15:39:27.307Z,6.37
2019-03-27T15:41:58.031Z,5.83
2019-03-27T15:44:29.094Z,6.15
2019-03-27T15:47:01.087Z,5.00
2019-03-27T15:49:31.915Z,5.83
2019-03-27T15:52:03.644Z,6.22
2019-03-27T15:54:34.427Z,5.50
2019-03-27T15:57:16.027Z,4.45
2019-03-27T15:59:46.750Z,5.83
2019-03-27T16:02:18.976Z,5.67
2019-03-27T16:04:51.775Z,5.05
2019-03-27T16:07:35.384Z,5.33
2019-03-27T16:10:06.504Z,6.50
2019-03-27T16:12:37.189Z,5.00
2019-03-27T16:15:08.516Z,4.85
2019-03-27T16:17:39.275Z,5.83
2019-03-27T16:20:10.405Z,5.05
2019-03-27T16:22:50.503Z,4.70
2019-03-27T16:25:13.847Z,5.40
2019-03-27T16:27:44.537Z,5.10
2019-03-27T16:30:17.255Z,4.05
2019-03-27T16:32:48.187Z,4.67
2019-03-27T16:35:18.853Z,4.15
2019-03-27T16:37:49.543Z,5.50
2019-03-27T16:40:37.347Z,4.58
2019-03-27T16:43:08.037Z,4.20
2019-03-27T16:45:40.807Z,6.05
2019-03-27T16:48:11.594Z,3.80
2019-03-27T16:50:42.289Z,5.45
2019-03-27T16:53:13.388Z,3.98
2019-03-27T16:55:44.078Z,4.58
2019-03-27T16:58:14.816Z,4.58
2019-03-27T17:00:45.537Z,4.40
2019-03-27T17:03:16.263Z,4.37
2019-03-27T17:05:53.875Z,4.78
2019-03-27T17:08:19.486Z,4.05
2019-03-27T17:10:50.175Z,4.90
2019-03-27T17:13:21.021Z,4.80
2019-03-27T17:15:51.709Z,4.62
2019-03-27T17:18:22.444Z,3.90
2019-03-27T17:20:53.127Z,4.17
2019-03-27T17:23:24.120Z,3.30
2019-03-27T17:25:54.904Z,4.40
2019-03-27T17:28:25.759Z,6.92
2019-03-27T17:30:56.550Z,5.83
2019-03-27T17:33:27.191Z,4.67
2019-03-27T17:35:57.886Z,5.58
2019-03-27T17:38:28.631Z,4.72
2019-03-27T17:41:01.595Z,5.15
2019-03-27T17:43:32.283Z,4.70
2019-03-27T17:46:03.298Z,5.17
2019-03-27T17:48:34.013Z,5.05
2019-03-27T17:51:04.657Z,4.08
2019-03-27T17:53:35.310Z,4.50
2019-03-27T17:56:05.976Z,5.17
2019-03-27T17:58:36.694Z,5.47
2019-03-27T18:01:07.344Z,6.25
2019-03-27T18:03:38.108Z,7.42
2019-03-27T18:06:09.032Z,6.25
2019-03-27T18:08:39.726Z,3.17
2019-03-27T18:11:10.440Z,4.53
2019-03-27T18:13:41.069Z,3.27
2019-03-27T18:16:11.759Z,3.10
2019-03-27T18:18:42.444Z,4.00
2019-03-27T18:21:15.455Z,4.05
2019-03-27T18:23:46.871Z,8.55
2019-03-27T18:26:17.585Z,7.97
2019-03-27T18:28:48.290Z,7.85
2019-03-27T18:31:19.063Z,2.62
2019-03-27T18:33:49.706Z,2.52
2019-03-27T18:36:20.329Z,3.60
2019-03-27T18:38:50.998Z,3.60
2019-03-27T18:41:22.868Z,2.72
2019-03-27T18:43:54.087Z,3.30
2019-03-27T18:46:27.051Z,5.30
2019-03-27T18:48:57.738Z,5.42
2019-03-27T18:51:29.308Z,5.10
2019-03-27T18:54:00.297Z,3.58
2019-03-27T18:56:31.198Z,5.67
2019-03-27T18:59:02.192Z,4.72
2019-03-27T19:01:33.034Z,5.15
2019-03-27T19:04:04.124Z,6.08
2019-03-27T19:06:35.940Z,3.83
2019-03-27T19:09:09.168Z,3.17
2019-03-27T19:11:39.923Z,4.05
2019-03-27T19:14:13.086Z,5.30
2019-03-27T19:16:45.237Z,3.60
2019-03-27T19:19:19.810Z,3.50
2019-03-27T19:21:50.621Z,3.60
2019-03-27T19:24:21.500Z,22.58
2019-03-27T19:26:52.756Z,31.40
2019-03-27T19:29:35.804Z,21.70
2019-03-27T19:32:08.363Z,12.20
2019-03-27T19:34:39.124Z,10.05
2019-03-27T19:37:09.917Z,9.80
2019-03-27T19:39:41.105Z,8.83
2019-03-27T19:42:11.852Z,5.35
2019-03-27T19:44:43.675Z,7.80
2019-03-27T19:47:14.527Z,7.50
2019-03-27T19:49:45.155Z,7.00
2019-03-27T19:52:16.073Z,7.30
2019-03-27T19:54:47.039Z,6.80
2019-03-27T19:57:20.717Z,8.37
2019-03-27T19:59:52.005Z,8.20
2019-03-27T20:02:24.628Z,7.90
2019-03-27T20:04:56.369Z,10.13
2019-03-27T20:07:35.877Z,8.53
2019-03-27T20:09:59.612Z,35.43
2019-03-27T20:12:32.442Z,15.13
2019-03-27T20:15:11.760Z,12.75
2019-03-27T20:17:38.207Z,15.65
2019-03-27T20:20:09.943Z,11.90
2019-03-27T20:22:42.425Z,11.25
2019-03-27T20:25:14.939Z,6.80
2019-03-27T20:27:45.924Z,5.00
2019-03-27T20:30:19.173Z,5.55
2019-03-27T20:32:50.753Z,8.35
2019-03-27T20:35:22.937Z,6.47
2019-03-27T20:37:53.790Z,6.22
2019-03-27T20:40:27.483Z,3.95
2019-03-27T20:42:57.327Z,5.80
2019-03-27T20:45:29.150Z,6.75
2019-03-27T20:48:00.184Z,5.10
2019-03-27T20:50:30.833Z,3.72
2019-03-27T20:53:01.487Z,4.45
2019-03-27T20:55:34.476Z,3.98
2019-03-27T20:58:05.353Z,4.40
2019-03-27T21:00:37.264Z,4.50
2019-03-27T21:03:09.978Z,4.85
2019-03-27T21:05:40.642Z,4.72
2019-03-27T21:08:13.000Z,4.30
2019-03-27T21:10:43.698Z,3.05
2019-03-27T21:13:14.385Z,3.25
2019-03-27T21:15:45.081Z,3.25
2019-03-27T21:18:15.782Z,4.03
2019-03-27T21:20:47.644Z,3.20
2019-03-27T21:23:20.351Z,3.35
2019-03-27T21:25:51.074Z,3.02
2019-03-27T21:28:22.649Z,2.85
2019-03-27T21:30:53.347Z,2.77
2019-03-27T21:33:24.047Z,3.52
2019-03-27T21:35:54.988Z,3.60
2019-03-27T21:38:25.679Z,3.40
2019-03-27T21:40:58.829Z,4.95
2019-03-27T21:43:32.736Z,4.10
2019-03-27T21:46:06.151Z,3.95
2019-03-27T21:48:37.966Z,4.42
2019-03-27T21:51:09.052Z,5.53
2019-03-27T21:53:41.553Z,4.95
2019-03-27T21:56:12.234Z,3.70
2019-03-27T21:58:43.377Z,3.40
2019-03-27T22:01:14.404Z,5.37
2019-03-27T22:03:49.213Z,3.20
2019-03-27T22:06:19.964Z,3.05
2019-03-27T22:08:50.631Z,3.87
2019-03-27T22:11:21.256Z,3.72
2019-03-27T22:13:52.259Z,3.72
2019-03-27T22:16:23.414Z,3.75
2019-03-27T22:18:54.270Z,3.45
2019-03-27T22:21:24.926Z,5.17
2019-03-27T22:23:58.057Z,3.17
2019-03-27T22:26:28.747Z,3.22
2019-03-27T22:29:03.112Z,3.00
2019-03-27T22:31:35.184Z,3.35
2019-03-27T22:34:05.928Z,3.95
2019-03-27T22:36:38.082Z,4.33
2019-03-27T22:39:09.584Z,3.90
2019-03-27T22:41:40.321Z,3.92
2019-03-27T22:44:13.080Z,4.25
2019-03-27T22:46:43.778Z,3.30
2019-03-27T22:49:14.975Z,4.33
2019-03-27T22:51:47.283Z,3.98
2019-03-27T22:54:18.815Z,3.80
2019-03-27T22:56:49.728Z,4.37
2019-03-27T22:59:20.473Z,4.05
2019-03-27T23:01:53.136Z,4.25
2019-03-27T23:04:29.884Z,4.33
2019-03-27T23:07:00.605Z,4.75
2019-03-27T23:09:32.027Z,4.55
2019-03-27T23:12:04.743Z,4.20
2019-03-27T23:14:38.704Z,5.20
2019-03-27T23:17:10.132Z,5.62
2019-03-27T23:19:43.369Z,3.65
2019-03-27T23:22:14.439Z,4.83
2019-03-27T23:24:49.492Z,5.40
2019-03-27T23:27:20.227Z,4.67
2019-03-27T23:29:54.469Z,4.75
2019-03-27T23:32:26.401Z,4.30
2019-03-27T23:34:57.111Z,5.28
2019-03-27T23:37:27.775Z,4.42
2019-03-27T23:40:00.064Z,4.12
2019-03-27T23:42:30.870Z,4.40
2019-03-27T23:45:01.590Z,4.37
2019-03-27T23:47:32.342Z,4.22
2019-03-27T23:50:05.473Z,4.62
2019-03-27T23:52:37.308Z,4.65
2019-03-27T23:55:08.852Z,6.55
2019-03-27T23:57:40.111Z,5.35
